createdAt,value
2022-08-23T00:02:23.757Z,12.30
2022-08-23T00:05:08.660Z,9.60
2022-08-23T00:07:39.947Z,8.48
2022-08-23T00:10:11.723Z,12.80
2022-08-23T00:12:42.900Z,12.40
2022-08-23T00:15:16.811Z,13.60
2022-08-23T00:17:48.857Z,9.30
2022-08-23T00:20:25.938Z,9.05
2022-08-23T00:22:54.946Z,10.40
2022-08-23T00:25:25.817Z,11.75
2022-08-23T00:27:55.861Z,13.13
2022-08-23T00:30:26.082Z,12.82
2022-08-23T00:32:57.938Z,11.88
2022-08-23T00:35:28.406Z,10.60
2022-08-23T00:38:33.085Z,14.50
2022-08-23T00:40:51.843Z,15.63
2022-08-23T00:43:46.459Z,14.48
2022-08-23T00:46:42.228Z,11.70
2022-08-23T00:49:34.195Z,13.55
2022-08-23T00:52:09.581Z,11.48
2022-08-23T00:54:44.580Z,8.63
2022-08-23T00:57:19.675Z,11.15
2022-08-23T00:59:50.759Z,13.32
2022-08-23T01:02:33.685Z,12.25
2022-08-23T01:05:11.621Z,11.23
2022-08-23T01:07:53.961Z,10.20
2022-08-23T01:10:38.452Z,11.02
2022-08-23T01:13:16.431Z,8.57
2022-08-23T01:15:56.332Z,9.90
2022-08-23T01:18:28.392Z,12.30
2022-08-23T01:21:04.548Z,10.55
2022-08-23T01:23:59.845Z,9.43
2022-08-23T01:26:32.423Z,8.82
2022-08-23T01:29:09.163Z,11.65
2022-08-23T01:31:41.090Z,10.65
2022-08-23T01:34:12.277Z,12.23
2022-08-23T01:36:41.119Z,10.95
2022-08-23T01:39:15.631Z,7.47
2022-08-23T01:41:44.801Z,7.35
2022-08-23T01:44:15.219Z,8.15
2022-08-23T01:46:47.572Z,8.65
2022-08-23T01:49:19.070Z,10.88
2022-08-23T01:51:48.886Z,9.60
2022-08-23T01:54:19.030Z,9.40
2022-08-23T01:56:49.443Z,8.20
2022-08-23T01:59:18.094Z,8.50
2022-08-23T02:01:51.861Z,8.55
2022-08-23T02:04:26.014Z,7.22
2022-08-23T02:06:55.881Z,7.82
2022-08-23T02:09:28.017Z,6.25
2022-08-23T02:12:00.907Z,7.20
2022-08-23T02:14:33.199Z,6.60
2022-08-23T02:17:07.334Z,9.25
2022-08-23T02:19:40.275Z,6.18
2022-08-23T02:22:13.461Z,6.17
2022-08-23T02:24:45.804Z,7.88
2022-08-23T02:27:15.999Z,8.10
2022-08-23T02:29:48.619Z,7.15
2022-08-23T02:32:20.972Z,6.43
2022-08-23T02:35:01.758Z,8.30
2022-08-23T02:37:36.009Z,6.63
2022-08-23T02:40:08.614Z,5.93
2022-08-23T02:42:38.258Z,8.52
2022-08-23T02:45:08.809Z,6.63
2022-08-23T02:47:45.257Z,7.32
2022-08-23T02:50:21.595Z,5.88
2022-08-23T02:52:51.042Z,10.57
2022-08-23T02:55:21.727Z,5.32
2022-08-23T02:57:50.561Z,5.40
2022-08-23T03:00:20.599Z,6.95
2022-08-23T03:02:52.259Z,7.57
2022-08-23T03:05:21.797Z,5.50
2022-08-23T03:07:50.822Z,5.47
2022-08-23T03:10:20.738Z,7.75
2022-08-23T03:12:55.979Z,5.13
2022-08-23T03:15:24.640Z,4.63
2022-08-23T03:17:53.086Z,9.30
2022-08-23T03:20:21.993Z,7.38
2022-08-23T03:22:54.665Z,6.63
2022-08-23T03:25:27.413Z,12.05
2022-08-23T03:28:09.836Z,7.75
2022-08-23T03:30:43.294Z,6.05
2022-08-23T03:33:13.235Z,5.70
2022-08-23T03:35:42.704Z,5.68
2022-08-23T03:38:14.375Z,5.30
2022-08-23T03:40:46.072Z,5.72
2022-08-23T03:43:15.460Z,5.45
2022-08-23T03:45:44.177Z,9.27
2022-08-23T03:48:13.028Z,5.05
2022-08-23T03:50:42.011Z,8.02
2022-08-23T03:53:11.008Z,7.18
2022-08-23T03:55:43.863Z,10.32
2022-08-23T03:58:18.180Z,6.93
2022-08-23T04:00:47.105Z,5.85
2022-08-23T04:03:17.118Z,4.45
2022-08-23T04:06:07.301Z,10.05
2022-08-23T04:08:36.070Z,8.13
2022-08-23T04:11:08.206Z,6.07
2022-08-23T04:13:43.831Z,7.15
2022-08-23T04:18:42.648Z,5.57
2022-08-23T04:21:17.021Z,6.57
2022-08-23T04:23:46.129Z,7.50
2022-08-23T04:26:15.330Z,9.43
2022-08-23T04:28:47.993Z,8.10
2022-08-23T04:31:18.880Z,11.10
2022-08-23T04:33:52.454Z,6.20
2022-08-23T04:36:23.561Z,7.13
2022-08-23T04:38:58.457Z,9.13
2022-08-23T04:41:45.775Z,7.53
2022-08-23T04:44:16.054Z,8.75
2022-08-23T04:46:47.094Z,4.75
2022-08-23T04:49:16.813Z,7.28
2022-08-23T04:51:53.475Z,7.63
2022-08-23T04:54:23.910Z,5.65
2022-08-23T04:57:11.365Z,6.55
2022-08-23T04:59:44.077Z,7.63
2022-08-23T05:02:12.763Z,8.10
2022-08-23T05:04:43.658Z,8.63
2022-08-23T05:07:12.950Z,7.72
2022-08-23T05:09:41.795Z,7.63
2022-08-23T05:12:12.675Z,7.27
2022-08-23T05:14:41.790Z,10.20
2022-08-23T05:17:21.073Z,6.75
2022-08-23T05:19:50.258Z,7.28
2022-08-23T05:22:18.992Z,7.15
2022-08-23T05:25:07.741Z,6.95
2022-08-23T05:27:39.546Z,7.43
2022-08-23T05:30:14.398Z,8.10
2022-08-23T05:32:46.241Z,6.68
2022-08-23T05:35:15.543Z,9.00
2022-08-23T05:37:46.673Z,9.00
2022-08-23T05:40:15.705Z,5.93
2022-08-23T05:42:58.061Z,11.80
2022-08-23T05:45:28.232Z,11.73
2022-08-23T05:47:59.412Z,6.38
2022-08-23T05:50:35.852Z,7.70
2022-08-23T05:53:04.849Z,6.38
2022-08-23T05:55:34.760Z,9.27
2022-08-23T05:58:27.505Z,7.15
2022-08-23T06:01:01.516Z,12.35
2022-08-23T06:03:32.064Z,8.73
2022-08-23T06:06:02.957Z,10.95
2022-08-23T06:08:31.787Z,9.00
2022-08-23T06:11:02.921Z,10.10
2022-08-23T06:13:41.500Z,12.25
2022-08-23T06:16:14.851Z,11.65
2022-08-23T06:18:47.714Z,11.82
2022-08-23T06:21:41.340Z,12.80
2022-08-23T06:24:10.942Z,11.00
2022-08-23T06:50:23.311Z,21.83
2022-08-23T06:53:11.211Z,14.55
2022-08-23T06:55:54.950Z,10.85
2022-08-23T06:58:29.192Z,15.07
2022-08-23T07:01:44.638Z,11.50
2022-08-23T07:04:23.052Z,18.58
2022-08-23T07:07:20.983Z,12.13
2022-08-23T07:09:49.816Z,13.70
2022-08-23T07:12:20.067Z,14.70
2022-08-23T07:14:51.754Z,13.27
2022-08-23T07:17:21.411Z,15.52
2022-08-23T07:19:53.185Z,16.02
2022-08-23T07:22:26.995Z,15.23
2022-08-23T07:24:56.633Z,17.50
2022-08-23T07:27:28.260Z,11.50
2022-08-23T07:30:07.173Z,13.85
2022-08-23T07:32:38.767Z,15.48
2022-08-23T07:35:17.937Z,16.48
2022-08-23T07:37:49.427Z,15.32
2022-08-23T07:40:20.517Z,14.97
2022-08-23T07:42:53.823Z,13.45
2022-08-23T07:45:24.039Z,13.63
2022-08-23T07:47:57.535Z,18.95
2022-08-23T07:50:30.610Z,14.65
2022-08-23T07:53:03.868Z,15.40
2022-08-23T07:55:33.226Z,13.70
2022-08-23T07:58:16.557Z,14.57
2022-08-23T08:00:57.135Z,14.23
2022-08-23T08:03:44.055Z,12.80
2022-08-23T08:06:25.495Z,15.93
2022-08-23T08:08:58.119Z,12.32
2022-08-23T08:11:34.248Z,20.48
2022-08-23T08:14:08.577Z,14.38
2022-08-23T08:16:44.164Z,13.90
2022-08-23T08:19:18.938Z,18.80
2022-08-23T08:22:27.951Z,14.73
2022-08-23T08:25:18.567Z,17.40
2022-08-23T08:27:48.519Z,16.98
2022-08-23T08:30:18.451Z,14.90
2022-08-23T08:32:48.292Z,14.02
2022-08-23T08:35:17.891Z,14.70
2022-08-23T08:37:48.655Z,13.00
2022-08-23T08:40:26.135Z,16.30
2022-08-23T08:43:14.300Z,13.05
2022-08-23T08:45:59.220Z,15.98
2022-08-23T08:48:31.999Z,15.85
2022-08-23T08:53:38.930Z,13.40
2022-08-23T08:56:21.321Z,13.95
2022-08-23T08:59:06.708Z,16.70
2022-08-23T09:01:38.623Z,17.52
2022-08-23T09:04:09.644Z,12.55
2022-08-23T09:06:51.334Z,20.42
2022-08-23T09:09:37.225Z,13.90
2022-08-23T09:12:19.459Z,16.35
2022-08-23T09:15:04.134Z,19.35
2022-08-23T09:17:44.142Z,15.40
2022-08-23T09:20:16.019Z,21.67
2022-08-23T09:22:51.536Z,16.75
2022-08-23T09:25:31.164Z,21.10
2022-08-23T09:28:08.312Z,17.15
2022-08-23T09:30:50.145Z,16.73
2022-08-23T09:33:22.717Z,22.38
2022-08-23T09:36:17.156Z,15.77
2022-08-23T09:38:54.406Z,18.90
2022-08-23T09:41:28.195Z,16.67
2022-08-23T09:44:02.632Z,13.85
2022-08-23T09:46:42.194Z,15.85
2022-08-23T09:49:26.671Z,19.52
2022-08-23T09:52:02.304Z,20.35
2022-08-23T09:54:35.496Z,15.57
2022-08-23T09:57:10.980Z,17.58
2022-08-23T09:59:47.181Z,21.10
2022-08-23T10:02:28.034Z,18.45
2022-08-23T10:05:03.075Z,17.33
2022-08-23T10:07:42.735Z,15.65
2022-08-23T10:10:29.835Z,23.63
2022-08-23T10:13:05.521Z,22.05
2022-08-23T10:15:49.598Z,19.02
2022-08-23T10:18:30.553Z,19.70
2022-08-23T10:21:04.673Z,22.67
2022-08-23T10:23:48.524Z,25.65
2022-08-23T10:26:26.351Z,27.15
2022-08-23T10:29:22.502Z,23.92
2022-08-23T10:32:05.368Z,23.02
2022-08-23T10:35:04.548Z,23.77
2022-08-23T10:37:48.795Z,21.48
2022-08-23T10:40:28.942Z,23.48
2022-08-23T10:43:10.845Z,32.60
2022-08-23T10:45:43.395Z,21.38
2022-08-23T10:48:30.864Z,25.40
2022-08-23T10:51:04.693Z,23.50
2022-08-23T10:53:48.264Z,35.10
2022-08-23T10:56:21.011Z,27.52
2022-08-23T10:59:02.335Z,22.98
2022-08-23T11:01:42.129Z,32.50
2022-08-23T11:04:25.062Z,25.25
2022-08-23T11:07:20.144Z,26.65
2022-08-23T11:09:54.556Z,18.90
2022-08-23T11:12:29.271Z,34.35
2022-08-23T11:15:20.168Z,32.85
2022-08-23T11:18:05.832Z,28.67
2022-08-23T11:21:06.958Z,27.65
2022-08-23T11:23:54.812Z,32.10
2022-08-23T11:27:07.846Z,28.02
2022-08-23T11:29:48.695Z,35.08
2022-08-23T11:32:50.224Z,35.40
2022-08-23T11:35:43.102Z,26.70
2022-08-23T11:38:17.299Z,43.97
2022-08-23T11:41:01.270Z,31.05
2022-08-23T11:43:38.727Z,29.42
2022-08-23T11:46:36.124Z,35.40
2022-08-23T11:49:33.692Z,31.10
2022-08-23T11:52:17.817Z,32.40
2022-08-23T11:57:48.751Z,33.55
2022-08-23T12:00:28.682Z,44.25
2022-08-23T12:03:03.634Z,29.03
2022-08-23T12:06:07.405Z,36.45
2022-08-23T12:08:53.959Z,33.50
2022-08-23T12:11:26.638Z,36.72
2022-08-23T12:14:00.277Z,35.63
2022-08-23T12:16:49.628Z,41.08
2022-08-23T12:19:39.480Z,35.92
2022-08-23T12:22:13.584Z,40.05
2022-08-23T12:24:46.879Z,40.65
2022-08-23T12:27:29.814Z,26.90
2022-08-23T12:30:04.207Z,28.88
2022-08-23T12:32:45.986Z,32.30
2022-08-23T12:35:30.499Z,39.17
2022-08-23T12:38:08.212Z,42.47
2022-08-23T12:40:42.553Z,42.58
2022-08-23T12:43:22.481Z,43.17
2022-08-23T12:45:54.604Z,28.27
2022-08-23T12:48:25.677Z,36.00
2022-08-23T12:50:59.621Z,35.58
2022-08-23T12:53:30.787Z,37.53
2022-08-23T12:58:36.052Z,42.03
2022-08-23T13:01:07.993Z,46.70
2022-08-23T13:03:40.591Z,46.15
2022-08-23T13:06:13.487Z,31.75
2022-08-23T13:08:48.946Z,48.50
2022-08-23T13:11:22.463Z,47.10
2022-08-23T13:13:53.262Z,42.70
2022-08-23T13:16:28.996Z,52.15
2022-08-23T13:19:16.824Z,37.28
2022-08-23T13:21:45.857Z,50.20
2022-08-23T13:24:37.940Z,45.53
2022-08-23T13:27:23.094Z,48.88
2022-08-23T13:29:56.609Z,40.65
2022-08-23T13:32:39.627Z,34.50
2022-08-23T13:35:30.563Z,50.00
2022-08-23T13:38:03.289Z,55.65
2022-08-23T13:40:34.854Z,45.25
2022-08-23T13:43:10.117Z,33.92
2022-08-23T13:45:49.092Z,55.90
2022-08-23T13:48:22.219Z,43.92
2022-08-23T13:50:51.371Z,40.55
2022-08-23T13:53:20.497Z,52.58
2022-08-23T13:55:52.168Z,41.65
2022-08-23T13:58:29.071Z,50.95
2022-08-23T14:01:00.665Z,33.33
2022-08-23T14:03:31.566Z,47.83
2022-08-23T14:06:00.543Z,43.50
2022-08-23T14:08:29.087Z,49.63
2022-08-23T14:10:57.665Z,43.08
2022-08-23T14:13:31.006Z,38.33
2022-08-23T14:21:42.891Z,41.53
2022-08-23T14:24:12.017Z,41.38
2022-08-23T14:26:51.669Z,41.83
2022-08-23T14:29:22.481Z,38.85
2022-08-23T14:31:53.597Z,39.55
2022-08-23T14:34:22.806Z,41.47
2022-08-23T14:39:42.203Z,40.08
2022-08-23T14:42:11.337Z,39.92
2022-08-23T14:44:40.231Z,39.88
2022-08-23T14:47:10.258Z,38.30
2022-08-23T14:49:39.051Z,39.28
2022-08-23T14:52:08.008Z,47.33
2022-08-23T14:54:36.893Z,37.42
2022-08-23T14:57:06.593Z,43.85
2022-08-23T14:59:35.907Z,43.95
2022-08-23T15:02:06.313Z,33.78
2022-08-23T15:04:37.705Z,32.47
2022-08-23T15:07:17.635Z,37.95
2022-08-23T15:09:49.918Z,45.40
2022-08-23T15:15:12.267Z,43.78
2022-08-23T15:17:52.500Z,45.63
2022-08-23T15:20:30.195Z,30.88
2022-08-23T15:23:00.430Z,36.33
2022-08-23T15:25:32.284Z,37.60
2022-08-23T15:28:02.673Z,43.90
2022-08-23T15:30:34.339Z,38.80
2022-08-23T15:33:03.651Z,44.35
2022-08-23T15:35:41.032Z,42.28
2022-08-23T15:38:11.947Z,41.17
2022-08-23T15:40:40.725Z,43.22
2022-08-23T15:43:10.507Z,44.15
2022-08-23T15:45:39.873Z,47.55
2022-08-23T15:48:16.873Z,39.20
2022-08-23T15:50:48.536Z,42.58
2022-08-23T15:55:47.191Z,41.00
2022-08-23T15:58:18.787Z,29.02
2022-08-23T16:03:18.748Z,32.47
2022-08-23T16:05:53.227Z,41.53
2022-08-23T16:08:26.299Z,41.15
2022-08-23T16:10:55.671Z,30.80
2022-08-23T16:13:25.067Z,39.60
2022-08-23T16:15:54.642Z,30.30
2022-08-23T16:18:23.582Z,23.10
2022-08-23T16:20:54.370Z,29.05
2022-08-23T16:23:26.559Z,25.00
2022-08-23T16:26:00.886Z,25.13
2022-08-23T16:28:30.921Z,32.38
2022-08-23T16:30:59.882Z,28.02
2022-08-23T16:33:29.056Z,26.90
2022-08-23T16:35:59.721Z,29.10
2022-08-23T16:38:28.404Z,25.15
2022-08-23T16:40:56.833Z,28.27
2022-08-23T16:43:25.436Z,24.90
2022-08-23T16:45:57.292Z,29.60
2022-08-23T16:48:26.492Z,20.55
2022-08-23T16:50:55.312Z,26.27
2022-08-23T16:53:28.107Z,18.73
2022-08-23T16:55:57.477Z,23.08
2022-08-23T16:58:26.514Z,23.25
2022-08-23T17:00:57.568Z,23.52
2022-08-23T17:03:27.223Z,25.92
2022-08-23T17:05:55.965Z,22.35
2022-08-23T17:08:28.541Z,18.63
2022-08-23T17:11:01.143Z,13.88
2022-08-23T17:13:32.558Z,17.33
2022-08-23T17:16:01.070Z,18.15
2022-08-23T17:18:29.473Z,16.70
2022-08-23T17:20:59.318Z,20.35
2022-08-23T17:23:29.100Z,26.13
2022-08-23T17:25:57.847Z,17.52
2022-08-23T17:28:26.790Z,17.40
2022-08-23T17:30:58.826Z,17.95
2022-08-23T17:33:27.935Z,17.52
2022-08-23T17:35:56.442Z,21.65
2022-08-23T17:38:28.131Z,19.48
2022-08-23T17:40:59.093Z,17.60
2022-08-23T17:43:28.585Z,21.05
2022-08-23T17:45:57.217Z,18.05
2022-08-23T17:48:25.940Z,22.77
2022-08-23T17:50:55.809Z,28.25
2022-08-23T17:53:24.660Z,22.95
2022-08-23T17:55:53.191Z,21.15
2022-08-23T17:58:23.298Z,20.55
2022-08-23T18:00:57.187Z,18.98
2022-08-23T18:03:26.958Z,17.77
2022-08-23T18:05:55.403Z,22.73
2022-08-23T18:08:24.643Z,24.25
2022-08-23T18:10:54.974Z,19.40
2022-08-23T18:13:25.517Z,13.80
2022-08-23T18:15:54.339Z,20.23
2022-08-23T18:18:23.124Z,17.88
2022-08-23T18:20:51.919Z,21.25
2022-08-23T18:23:20.536Z,19.15
2022-08-23T18:25:49.150Z,18.13
2022-08-23T18:28:18.227Z,17.88
2022-08-23T18:30:50.603Z,20.83
2022-08-23T18:33:21.428Z,15.40
2022-08-23T18:35:54.429Z,22.58
2022-08-23T18:38:22.982Z,14.15
2022-08-23T18:40:51.440Z,22.10
2022-08-23T18:43:22.473Z,20.35
2022-08-23T18:45:55.970Z,19.40
2022-08-23T18:48:26.490Z,18.52
2022-08-23T18:50:54.871Z,18.58
2022-08-23T18:53:23.337Z,19.02
2022-08-23T18:55:52.581Z,19.67
2022-08-23T18:58:22.783Z,17.67
2022-08-23T19:00:52.414Z,15.57
2022-08-23T19:03:22.395Z,20.20
2022-08-23T19:05:51.022Z,16.33
2022-08-23T19:08:20.141Z,14.52
2022-08-23T19:10:48.865Z,19.00
2022-08-23T19:13:17.656Z,20.75
2022-08-23T19:15:47.144Z,17.08
2022-08-23T19:18:16.270Z,18.45
2022-08-23T19:20:46.460Z,16.45
2022-08-23T19:23:15.527Z,19.38
2022-08-23T19:25:45.572Z,15.60
2022-08-23T19:28:15.188Z,13.80
2022-08-23T19:30:44.751Z,15.85
2022-08-23T19:33:14.039Z,13.93
2022-08-23T19:35:43.280Z,18.33
2022-08-23T19:38:14.337Z,16.67
2022-08-23T19:40:43.766Z,17.27
2022-08-23T19:43:12.666Z,14.45
2022-08-23T19:45:41.243Z,17.00
2022-08-23T19:48:10.230Z,10.82
2022-08-23T19:50:40.302Z,16.02
2022-08-23T19:53:10.025Z,19.45
2022-08-23T19:55:43.363Z,15.35
2022-08-23T19:58:15.315Z,17.88
2022-08-23T20:00:44.072Z,21.15
2022-08-23T20:03:13.023Z,12.93
2022-08-23T20:05:42.269Z,19.30
2022-08-23T20:08:10.903Z,18.00
2022-08-23T20:10:39.964Z,16.35
2022-08-23T20:13:10.090Z,14.65
2022-08-23T20:15:40.056Z,24.75
2022-08-23T20:18:08.651Z,15.65
2022-08-23T20:20:38.286Z,18.08
2022-08-23T20:23:25.262Z,18.13
2022-08-23T20:25:54.327Z,16.58
2022-08-23T20:28:26.454Z,20.05
2022-08-23T20:30:55.079Z,14.15
2022-08-23T20:33:24.971Z,16.45
2022-08-23T20:35:57.531Z,19.30
2022-08-23T20:41:03.449Z,14.20
2022-08-23T20:43:35.788Z,13.10
2022-08-23T20:48:35.527Z,19.90
2022-08-23T20:51:07.383Z,17.20
2022-08-23T20:56:07.926Z,16.33
2022-08-23T20:58:38.349Z,16.80
2022-08-23T21:01:10.287Z,15.23
2022-08-23T21:03:40.063Z,15.02
2022-08-23T21:06:11.018Z,17.88
2022-08-23T21:08:43.415Z,17.98
2022-08-23T21:11:18.410Z,19.88
2022-08-23T21:13:49.575Z,10.35
2022-08-23T21:16:18.924Z,15.25
2022-08-23T21:18:48.833Z,12.48
2022-08-23T21:21:21.566Z,13.38
2022-08-23T21:23:51.372Z,18.13
2022-08-23T21:26:20.349Z,15.98
2022-08-23T21:28:54.647Z,18.13
2022-08-23T21:31:28.772Z,18.02
2022-08-23T21:33:57.612Z,14.00
2022-08-23T21:36:26.583Z,14.30
2022-08-23T21:38:55.686Z,14.35
2022-08-23T21:41:34.029Z,14.73
2022-08-23T21:44:07.229Z,17.52
2022-08-23T21:46:37.060Z,13.70
2022-08-23T21:49:06.319Z,22.20
2022-08-23T21:51:35.450Z,17.83
2022-08-23T21:54:04.313Z,12.02
2022-08-23T21:56:33.592Z,15.95
2022-08-23T21:59:07.167Z,12.88
2022-08-23T22:01:36.610Z,16.88
2022-08-23T22:04:07.655Z,12.07
2022-08-23T22:06:37.242Z,18.52
2022-08-23T22:09:08.396Z,21.30
2022-08-23T22:11:37.859Z,14.85
2022-08-23T22:14:08.681Z,19.95
2022-08-23T22:16:37.708Z,14.23
2022-08-23T22:19:07.023Z,25.45
2022-08-23T22:21:36.591Z,12.40
2022-08-23T22:24:06.132Z,16.23
2022-08-23T22:26:35.724Z,14.43
2022-08-23T22:29:06.058Z,21.02
2022-08-23T22:31:38.256Z,14.05
2022-08-23T22:34:08.901Z,12.68
2022-08-23T22:36:37.953Z,14.55
2022-08-23T22:39:07.866Z,13.68
2022-08-23T22:41:37.386Z,13.32
2022-08-23T22:44:06.585Z,14.35
2022-08-23T22:46:37.325Z,16.85
2022-08-23T22:49:06.250Z,15.10
2022-08-23T22:51:37.052Z,13.68
2022-08-23T22:54:09.660Z,12.48
2022-08-23T22:56:48.624Z,15.55
2022-08-23T22:59:19.948Z,15.70
2022-08-23T23:01:53.193Z,21.40
2022-08-23T23:04:25.474Z,9.98
2022-08-23T23:06:56.384Z,28.17
2022-08-23T23:09:25.669Z,19.92
2022-08-23T23:11:55.243Z,15.73
2022-08-23T23:14:25.621Z,20.50
2022-08-23T23:16:56.336Z,16.52
2022-08-23T23:19:47.987Z,14.80
2022-08-23T23:22:16.655Z,17.23
2022-08-23T23:24:46.001Z,12.10
2022-08-23T23:27:14.558Z,15.20
2022-08-23T23:29:43.324Z,16.33
2022-08-23T23:32:13.531Z,11.02
2022-08-23T23:34:42.288Z,19.90
2022-08-23T23:37:11.504Z,17.05
2022-08-23T23:39:40.239Z,19.77
2022-08-23T23:42:09.347Z,13.93
2022-08-23T23:44:37.993Z,16.52
2022-08-23T23:47:06.765Z,16.15
2022-08-23T23:49:36.934Z,12.98
2022-08-23T23:52:07.411Z,14.77
2022-08-23T23:54:39.130Z,13.93
2022-08-23T23:59:37.613Z,16.20
